.
WxDataArchive / Data Records for 2007-11-25
2007-11-24 November 2007 2007-11-26

Data Records for Sunday, 25 November 2007

Time	Temp	Chill	HIndex	Humid	Dewpt	 Wind 	HiWind	WindDir	Rain 	Barom 
-----	----	-----	------	-----	-----	------	------	-------	-----	----- 
00:00	28.8	28.8	28.8	77	22.5	0	2	248	0.00	30.233 
00:05	28.8	28.8	28.8	77	22.5	1	3	248	0.00	30.233 
00:10	29.0	29.0	29.0	77	22.7	1	3	248	0.00	30.235 
00:15	29.0	29.0	29.0	77	22.7	0	1	248	0.00	30.236 
00:20	28.8	28.8	28.8	77	22.5	0	1	248	0.00	30.236 
00:25	28.7	28.7	28.7	77	22.4	0	1	248	0.00	30.235 
00:30	28.5	28.5	28.5	78	22.5	1	3	248	0.00	30.235 
00:35	28.7	28.7	28.7	78	22.7	0	1	248	0.00	30.232 
00:40	28.7	28.7	28.7	78	22.7	0	2	248	0.00	30.232 
00:45	28.7	28.7	28.7	78	22.7	1	3	248	0.00	30.234 
00:50	28.8	28.8	28.8	77	22.5	1	3	248	0.00	30.233 
00:55	29.0	29.0	29.0	77	22.7	1	4	248	0.00	30.236 
01:00	29.3	29.3	29.3	76	22.7	1	5	225	0.00	30.233 
01:05	29.3	29.3	29.3	76	22.7	0	2	248	0.00	30.232 
01:10	29.3	29.3	29.3	76	22.7	1	4	248	0.00	30.226 
01:15	29.3	29.3	29.3	76	22.7	1	5	248	0.00	30.219 
01:20	29.3	29.3	29.3	76	22.7	0	2	270	0.00	30.222 
01:25	29.1	29.1	29.1	76	22.5	0	2	248	0.00	30.225 
01:30	29.0	29.0	29.0	76	22.4	0	2	248	0.00	30.229 
01:35	28.8	28.8	28.8	77	22.5	0	1	248	0.00	30.224 
01:40	28.7	28.7	28.7	77	22.4	0	2	248	0.00	30.232 
01:45	28.5	28.5	28.5	77	22.2	0	1	248	0.00	30.232 
01:50	28.5	28.5	28.5	78	22.5	0	3	248	0.00	30.229 
01:55	28.5	28.5	28.5	78	22.5	0	1	248	0.00	30.230 
02:00	28.4	28.4	28.4	78	22.4	0	1	248	0.00	30.231 
02:05	28.2	28.2	28.2	78	22.2	0	2	248	0.00	30.232 
02:10	28.1	28.1	28.1	78	22.1	0	1	248	0.00	30.235 
02:15	27.9	27.9	27.9	78	21.9	0	0	---	0.00	30.234 
02:20	27.6	27.6	27.6	79	22.0	0	0	---	0.00	30.235 
02:25	27.5	27.5	27.5	80	22.2	0	1	248	0.00	30.240 
02:30	27.5	27.5	27.5	80	22.2	0	2	248	0.00	30.243 
02:35	27.3	27.3	27.3	81	22.3	0	1	248	0.00	30.245 
02:40	27.3	27.3	27.3	81	22.3	0	2	248	0.00	30.249 
02:45	27.3	27.3	27.3	81	22.3	0	1	248	0.00	30.248 
02:50	27.3	27.3	27.3	81	22.3	0	1	248	0.00	30.247 
02:55	27.3	27.3	27.3	81	22.3	0	1	248	0.00	30.249 
03:00	27.2	27.2	27.2	81	22.2	0	1	248	0.00	30.251 
03:05	27.0	27.0	27.0	82	22.3	0	1	248	0.00	30.250 
03:10	26.9	26.9	26.9	82	22.2	0	1	248	0.00	30.250 
03:15	26.7	26.7	26.7	82	22.0	0	1	248	0.00	30.243 
03:20	26.7	26.7	26.7	83	22.2	0	1	248	0.00	30.238 
03:25	26.7	26.7	26.7	83	22.2	0	1	248	0.00	30.239 
03:30	26.6	26.6	26.6	83	22.1	0	1	248	0.00	30.236 
03:35	26.6	26.6	26.6	83	22.1	0	2	248	0.00	30.235 
03:40	26.7	26.7	26.7	83	22.2	0	2	248	0.00	30.235 
03:45	26.9	26.9	26.9	83	22.4	0	2	248	0.00	30.234 
03:50	27.0	27.0	27.0	83	22.5	0	1	248	0.00	30.231 
03:55	27.0	27.0	27.0	83	22.5	0	2	248	0.00	30.232 
04:00	27.2	27.2	27.2	82	22.4	0	1	248	0.00	30.226 
04:05	27.2	27.2	27.2	82	22.4	0	1	248	0.00	30.229 
04:10	27.0	27.0	27.0	82	22.3	0	1	248	0.00	30.227 
04:15	26.9	26.9	26.9	81	21.9	0	1	248	0.00	30.224 
04:20	26.7	26.7	26.7	82	22.0	0	2	248	0.00	30.224 
04:25	26.7	26.7	26.7	82	22.0	0	1	248	0.00	30.225 
04:30	26.7	26.7	26.7	82	22.0	0	0	---	0.00	30.223 
04:35	26.6	26.6	26.6	82	21.9	0	0	---	0.00	30.223 
04:40	26.4	26.4	26.4	82	21.7	0	0	---	0.00	30.224 
04:45	26.3	26.3	26.3	82	21.6	0	0	---	0.00	30.228 
04:50	26.1	26.1	26.1	83	21.7	0	0	---	0.00	30.232 
04:55	26.0	26.0	26.0	83	21.6	0	0	---	0.00	30.232 
05:00	25.8	25.8	25.8	83	21.4	0	0	---	0.00	30.234 
05:05	25.7	25.7	25.7	84	21.5	0	0	---	0.00	30.231 
05:10	25.6	25.6	25.6	84	21.5	0	0	---	0.00	30.233 
05:15	25.6	25.6	25.6	84	21.5	0	1	248	0.00	30.234 
05:20	25.6	25.6	25.6	85	21.7	0	0	---	0.00	30.229 
05:25	25.6	25.6	25.6	85	21.7	0	0	---	0.00	30.230 
05:30	25.4	25.4	25.4	85	21.5	0	0	---	0.00	30.230 
05:35	25.6	25.6	25.6	85	21.7	0	1	248	0.00	30.232 
05:40	25.6	25.6	25.6	85	21.7	0	0	---	0.00	30.227 
05:45	25.6	25.6	25.6	86	22.0	0	1	248	0.00	30.228 
05:50	25.4	25.4	25.4	86	21.8	0	1	248	0.00	30.225 
05:55	25.4	25.4	25.4	86	21.8	0	1	248	0.00	30.222 
06:00	25.6	25.6	25.6	86	22.0	0	3	248	0.00	30.220 
06:05	25.8	25.8	25.8	86	22.2	0	1	248	0.00	30.217 
06:10	26.1	26.1	26.1	85	22.2	0	1	248	0.00	30.215 
06:15	26.3	26.3	26.3	85	22.4	0	1	248	0.00	30.214 
06:20	26.4	26.4	26.4	84	22.2	0	1	248	0.00	30.217 
06:25	26.4	26.4	26.4	84	22.2	0	1	248	0.00	30.213 
06:30	26.3	26.3	26.3	84	22.1	0	1	248	0.00	30.219 
06:35	26.3	26.3	26.3	84	22.1	0	1	248	0.00	30.223 
06:40	26.3	26.3	26.3	84	22.1	0	1	248	0.00	30.225 
06:45	26.1	26.1	26.1	84	21.9	0	1	248	0.00	30.226 
06:50	26.0	26.0	26.0	84	21.8	0	0	---	0.00	30.227 
06:55	25.7	25.7	25.7	83	21.3	0	0	---	0.00	30.229 
07:00	25.4	25.4	25.4	84	21.3	0	0	---	0.00	30.229 
07:05	25.1	25.1	25.1	84	21.0	0	0	---	0.00	30.230 
07:10	25.0	25.0	25.0	84	20.9	0	0	---	0.00	30.227 
07:15	24.7	24.7	24.7	84	20.6	0	0	---	0.00	30.230 
07:20	24.4	24.4	24.4	84	20.3	0	0	---	0.00	30.230 
07:25	24.2	24.2	24.2	85	20.4	0	0	---	0.00	30.234 
07:30	24.1	24.1	24.1	86	20.5	0	0	---	0.00	30.240 
07:35	24.1	24.1	24.1	86	20.5	0	0	---	0.00	30.246 
07:40	24.1	24.1	24.1	87	20.8	0	0	---	0.00	30.245 
07:45	24.1	24.1	24.1	87	20.8	0	1	248	0.00	30.245 
07:50	24.4	24.4	24.4	88	21.4	0	1	248	0.00	30.251 
07:55	24.7	24.7	24.7	88	21.7	0	1	248	0.00	30.248 
08:00	25.0	25.0	25.0	88	22.0	0	1	248	0.00	30.247 
08:05	25.1	25.1	25.1	88	22.1	0	1	248	0.00	30.246 
08:10	25.3	25.3	25.3	88	22.3	0	0	---	0.00	30.246 
08:15	25.3	25.3	25.3	88	22.3	0	2	248	0.00	30.245 
08:20	25.3	25.3	25.3	88	22.3	0	0	---	0.00	30.248 
08:25	25.4	25.4	25.4	88	22.4	0	0	---	0.00	30.244 
08:30	25.6	25.6	25.6	87	22.3	0	0	---	0.00	30.238 
08:35	25.7	25.7	25.7	87	22.4	0	0	---	0.00	30.236 
08:40	25.8	25.8	25.8	87	22.5	0	0	---	0.00	30.235 
08:45	26.1	26.1	26.1	87	22.8	0	0	---	0.00	30.229 
08:50	26.3	26.3	26.3	87	23.0	0	0	---	0.00	30.230 
08:55	26.6	26.6	26.6	86	23.0	0	1	248	0.00	30.227 
09:00	26.7	26.7	26.7	86	23.1	0	0	---	0.00	30.227 
09:05	27.0	27.0	27.0	85	23.1	0	0	---	0.00	30.226 
09:10	27.3	27.3	27.3	86	23.7	0	0	---	0.00	30.226 
09:15	27.9	27.9	27.9	86	24.3	0	1	248	0.00	30.223 
09:20	28.8	28.8	28.8	84	24.6	0	1	248	0.00	30.224 
09:25	29.5	29.5	29.5	82	24.7	0	1	248	0.00	30.224 
09:30	30.1	30.1	30.1	80	24.7	0	3	68	0.00	30.222 
09:35	30.4	30.4	30.4	79	24.7	1	3	248	0.00	30.228 
09:40	30.6	30.6	30.6	78	24.6	1	3	248	0.00	30.227 
09:45	31.0	31.0	31.0	78	25.0	0	3	248	0.00	30.223 
09:50	31.3	31.3	31.3	77	24.9	1	3	248	0.00	30.222 
09:55	31.8	31.8	31.8	76	25.1	0	3	248	0.00	30.218 
10:00	32.1	32.1	32.1	75	25.1	1	4	248	0.00	30.219 
10:05	32.5	32.5	32.5	75	25.5	1	3	248	0.00	30.220 
10:10	32.9	32.9	32.9	75	25.9	0	2	225	0.00	30.211 
10:15	33.4	33.4	33.4	74	26.0	1	4	225	0.00	30.206 
10:20	33.7	33.7	33.7	74	26.3	0	1	248	0.00	30.211 
10:25	34.0	34.0	34.0	73	26.3	0	3	248	0.00	30.212 
10:30	34.1	34.1	34.1	72	26.0	1	3	248	0.00	30.208 
10:35	34.1	34.1	34.1	72	26.0	0	2	248	0.00	30.213 
10:40	34.3	34.3	34.3	72	26.2	0	2	248	0.00	30.214 
10:45	34.6	34.6	34.6	73	26.9	0	2	248	0.00	30.212 
10:50	34.9	34.9	34.9	72	26.8	1	3	112	0.00	30.212 
10:55	35.0	35.0	35.0	72	26.9	1	2	338	0.00	30.214 
11:00	35.3	35.3	35.3	71	26.9	1	4	248	0.00	30.214 
11:05	35.6	35.6	35.6	72	27.5	0	3	270	0.00	30.207 
11:10	35.9	35.9	35.9	71	27.4	1	4	248	0.00	30.204 
11:15	36.2	36.2	36.2	69	27.0	1	6	112	0.00	30.199 
11:20	36.5	36.5	36.5	70	27.7	1	3	68	0.00	30.189 
11:25	36.6	36.6	36.6	69	27.4	1	3	90	0.00	30.191 
11:30	37.0	37.0	37.0	70	28.1	1	4	248	0.00	30.189 
11:35	37.2	37.2	37.2	68	27.6	1	4	270	0.00	30.187 
11:40	37.0	37.0	37.0	68	27.4	1	4	248	0.00	30.185 
11:45	37.2	37.2	37.2	69	28.0	1	3	248	0.00	30.182 
11:50	37.3	37.3	37.3	70	28.4	1	3	248	0.00	30.184 
11:55	37.8	37.8	37.8	70	28.9	1	4	270	0.00	30.183 
12:00	37.9	37.9	37.9	69	28.7	1	2	338	0.00	30.181 
12:05	37.9	37.9	37.9	68	28.3	1	3	248	0.00	30.184 
12:10	37.8	37.8	37.8	69	28.6	1	5	248	0.00	30.174 
12:15	37.5	37.5	37.5	67	27.6	2	5	248	0.00	30.169 
12:20	37.0	37.0	37.0	68	27.4	2	6	270	0.00	30.167 
12:25	36.9	36.9	36.9	67	27.0	2	7	248	0.00	30.169 
12:30	36.9	36.9	36.9	68	27.3	1	3	248	0.00	30.169 
12:35	37.2	37.2	37.2	69	28.0	0	3	248	0.00	30.168 
12:40	37.2	37.2	37.2	68	27.6	2	4	225	0.00	30.169 
12:45	37.3	37.3	37.3	66	27.0	1	4	248	0.00	30.160 
12:50	37.3	37.3	37.3	65	26.6	1	5	270	0.00	30.157 
12:55	37.3	37.3	37.3	65	26.6	2	5	248	0.00	30.155 
13:00	37.3	37.3	37.3	66	27.0	2	6	248	0.00	30.145 
13:05	37.5	37.5	37.5	66	27.2	1	4	248	0.00	30.140 
13:10	37.8	37.8	37.8	66	27.5	1	4	248	0.00	30.137 
13:15	37.9	37.9	37.9	66	27.6	1	3	248	0.00	30.138 
13:20	38.0	38.0	38.0	65	27.3	1	6	248	0.00	30.140 
13:25	37.9	37.9	37.9	63	26.4	2	7	248	0.00	30.141 
13:30	37.9	37.9	37.9	62	26.1	3	9	248	0.00	30.143 
13:35	37.9	37.9	37.9	63	26.4	1	4	248	0.00	30.136 
13:40	37.9	37.9	37.9	63	26.4	1	5	248	0.00	30.132 
13:45	37.9	37.9	37.9	63	26.4	1	4	248	0.00	30.130 
13:50	38.2	38.2	38.2	62	26.3	0	2	225	0.00	30.121 
13:55	38.3	38.3	38.3	63	26.8	1	3	0	0.00	30.126 
14:00	38.3	38.3	38.3	62	26.4	1	3	248	0.00	30.123 
14:05	38.2	38.2	38.2	62	26.3	0	3	248	0.00	30.123 
14:10	38.0	38.0	38.0	61	25.8	1	3	270	0.00	30.122 
14:15	37.9	37.9	37.9	62	26.1	1	3	270	0.00	30.121 
14:20	37.9	37.9	37.9	61	25.7	1	4	248	0.00	30.115 
14:25	37.9	37.9	37.9	62	26.1	0	3	270	0.00	30.115 
14:30	37.9	37.9	37.9	62	26.1	1	3	270	0.00	30.111 
14:35	37.9	37.9	37.9	62	26.1	1	4	248	0.00	30.115 
14:40	37.9	37.9	37.9	62	26.1	1	4	248	0.00	30.115 
14:45	38.0	38.0	38.0	63	26.5	0	2	270	0.00	30.116 
14:50	38.2	38.2	38.2	63	26.7	0	2	270	0.00	30.110 
14:55	38.2	38.2	38.2	61	26.0	1	3	248	0.00	30.113 
15:00	38.2	38.2	38.2	62	26.3	0	3	248	0.00	30.109 
15:05	38.0	38.0	38.0	62	26.2	1	3	90	0.00	30.103 
15:10	37.9	37.9	37.9	62	26.1	0	1	90	0.00	30.104 
15:15	37.9	37.9	37.9	63	26.4	0	1	90	0.00	30.109 
15:20	37.8	37.8	37.8	64	26.7	0	2	90	0.00	30.109 
15:25	37.8	37.8	37.8	64	26.7	0	3	90	0.00	30.116 
15:30	37.6	37.6	37.6	65	26.9	0	3	90	0.00	30.120 
15:35	37.5	37.5	37.5	64	26.4	1	5	248	0.00	30.121 
15:40	37.3	37.3	37.3	65	26.6	1	3	248	0.00	30.116 
15:45	37.2	37.2	37.2	65	26.5	0	4	248	0.00	30.119 
15:50	37.2	37.2	37.2	66	26.9	1	4	248	0.00	30.120 
15:55	37.2	37.2	37.2	66	26.9	0	2	248	0.00	30.122 
16:00	37.3	37.3	37.3	67	27.4	0	2	248	0.00	30.123 
16:05	37.2	37.2	37.2	66	26.9	0	2	248	0.00	30.123 
16:10	37.2	37.2	37.2	66	26.9	0	2	248	0.00	30.119 
16:15	37.2	37.2	37.2	67	27.3	0	2	248	0.00	30.118 
16:20	37.2	37.2	37.2	66	26.9	0	2	248	0.00	30.118 
16:25	37.2	37.2	37.2	68	27.6	0	1	248	0.00	30.114 
16:30	37.0	37.0	37.0	69	27.8	0	1	248	0.00	30.113 
16:35	36.9	36.9	36.9	69	27.7	0	1	248	0.00	30.112 
16:40	36.6	36.6	36.6	70	27.8	0	2	248	0.00	30.111 
16:45	36.5	36.5	36.5	71	28.0	0	1	248	0.00	30.110 
16:50	36.0	36.0	36.0	72	27.9	0	1	248	0.00	30.112 
16:55	35.9	35.9	35.9	74	28.4	0	1	248	0.00	30.114 
17:00	35.8	35.8	35.8	76	29.0	0	1	248	0.00	30.109 
17:05	35.6	35.6	35.6	77	29.1	0	0	---	0.00	30.107 
17:10	35.5	35.5	35.5	78	29.3	0	0	---	0.01	30.106 
17:15	35.3	35.3	35.3	80	29.8	0	0	---	0.00	30.109 
17:20	35.2	35.2	35.2	81	30.0	0	0	---	0.00	30.110 
17:25	35.0	35.0	35.0	81	29.8	0	0	---	0.00	30.106 
17:30	35.0	35.0	35.0	82	30.1	0	0	---	0.00	30.103 
17:35	35.0	35.0	35.0	84	30.7	0	0	---	0.00	30.099 
17:40	34.9	34.9	34.9	84	30.6	0	0	---	0.00	30.096 
17:45	34.9	34.9	34.9	86	31.1	0	0	---	0.00	30.094 
17:50	34.9	34.9	34.9	86	31.1	0	0	---	0.00	30.095 
17:55	34.9	34.9	34.9	87	31.4	0	0	---	0.00	30.096 
18:00	34.9	34.9	34.9	87	31.4	0	0	---	0.00	30.097 
18:05	34.7	34.7	34.7	88	31.5	0	0	---	0.00	30.094 
18:10	34.7	34.7	34.7	88	31.5	0	0	---	0.00	30.094 
18:15	34.7	34.7	34.7	88	31.5	0	0	---	0.00	30.097 
18:20	34.7	34.7	34.7	89	31.8	0	0	---	0.00	30.095 
18:25	34.6	34.6	34.6	89	31.7	0	0	---	0.00	30.094 
18:30	34.6	34.6	34.6	89	31.7	0	0	---	0.00	30.096 
18:35	34.6	34.6	34.6	90	32.0	0	0	---	0.00	30.095 
18:40	34.6	34.6	34.6	90	32.0	0	0	---	0.00	30.099 
18:45	34.4	34.4	34.4	90	31.8	0	0	---	0.00	30.100 
18:50	34.4	34.4	34.4	90	31.8	0	0	---	0.01	30.098 
18:55	34.4	34.4	34.4	91	32.0	0	0	---	0.00	30.097 
19:00	34.4	34.4	34.4	91	32.0	0	0	---	0.00	30.092 
19:05	34.4	34.4	34.4	91	32.0	0	0	---	0.01	30.093 
19:10	34.4	34.4	34.4	91	32.0	0	1	248	0.00	30.084 
19:15	34.4	34.4	34.4	91	32.0	0	1	248	0.01	30.087 
19:20	34.4	34.4	34.4	92	32.3	0	0	---	0.00	30.085 
19:25	34.3	34.3	34.3	92	32.2	0	0	---	0.01	30.080 
19:30	34.3	34.3	34.3	92	32.2	0	0	---	0.00	30.080 
19:35	34.3	34.3	34.3	92	32.2	0	1	248	0.00	30.080 
19:40	34.3	34.3	34.3	92	32.2	0	1	248	0.00	30.078 
19:45	34.3	34.3	34.3	92	32.2	0	1	248	0.00	30.067 
19:50	34.1	34.1	34.1	92	32.0	0	1	248	0.00	30.067 
19:55	34.1	34.1	34.1	92	32.0	0	1	248	0.00	30.065 
20:00	34.1	34.1	34.1	92	32.0	0	1	248	0.00	30.066 
20:05	34.1	34.1	34.1	92	32.0	0	1	248	0.00	30.063 
20:10	34.1	34.1	34.1	92	32.0	0	1	248	0.00	30.062 
20:15	34.1	34.1	34.1	92	32.0	0	1	248	0.00	30.058 
20:20	34.1	34.1	34.1	92	32.0	0	1	248	0.00	30.061 
20:25	34.1	34.1	34.1	92	32.0	0	1	248	0.00	30.061 
20:30	34.1	34.1	34.1	93	32.3	0	3	112	0.01	30.057 
20:35	34.1	34.1	34.1	93	32.3	0	2	112	0.00	30.058 
20:40	34.1	34.1	34.1	93	32.3	0	2	112	0.00	30.058 
20:45	34.1	34.1	34.1	93	32.3	0	1	112	0.00	30.059 
20:50	34.1	34.1	34.1	93	32.3	0	1	112	0.00	30.055 
20:55	34.1	34.1	34.1	93	32.3	0	1	112	0.01	30.057 
21:00	34.1	34.1	34.1	93	32.3	0	0	---	0.00	30.055 
21:05	34.1	34.1	34.1	93	32.3	0	0	---	0.00	30.045 
21:10	34.1	34.1	34.1	93	32.3	0	0	---	0.00	30.043 
21:15	34.1	34.1	34.1	93	32.3	0	1	112	0.00	30.041 
21:20	34.1	34.1	34.1	94	32.6	0	1	112	0.00	30.043 
21:25	34.1	34.1	34.1	94	32.6	0	1	112	0.00	30.043 
21:30	34.1	34.1	34.1	94	32.6	0	2	112	0.00	30.044 
21:35	34.1	34.1	34.1	94	32.6	0	2	112	0.00	30.043 
21:40	34.1	34.1	34.1	94	32.6	0	1	112	0.00	30.042 
21:45	34.1	34.1	34.1	94	32.6	0	1	112	0.00	30.043 
21:50	34.3	34.3	34.3	94	32.8	0	1	112	0.00	30.043 
21:55	34.3	34.3	34.3	94	32.8	0	1	112	0.00	30.042 
22:00	34.3	34.3	34.3	94	32.8	0	2	112	0.00	30.039 
22:05	34.3	34.3	34.3	94	32.8	0	1	112	0.00	30.033 
22:10	34.3	34.3	34.3	94	32.8	0	1	112	0.00	30.029 
22:15	34.3	34.3	34.3	94	32.8	0	1	112	0.00	30.029 
22:20	34.3	34.3	34.3	94	32.8	0	0	---	0.00	30.031 
22:25	34.3	34.3	34.3	94	32.8	0	0	---	0.01	30.025 
22:30	34.4	34.4	34.4	95	33.1	0	0	---	0.00	30.025 
22:35	34.4	34.4	34.4	95	33.1	0	1	112	0.00	30.025 
22:40	34.4	34.4	34.4	95	33.1	0	1	112	0.00	30.018 
22:45	34.4	34.4	34.4	95	33.1	0	1	112	0.00	30.016 
22:50	34.4	34.4	34.4	95	33.1	0	1	112	0.00	30.020 
22:55	34.6	34.6	34.6	95	33.3	0	0	---	0.00	30.010 
23:00	34.6	34.6	34.6	95	33.3	0	0	---	0.00	30.008 
23:05	34.6	34.6	34.6	95	33.3	0	1	112	0.00	30.008 
23:10	34.4	34.4	34.4	95	33.1	0	1	158	0.00	30.013 
23:15	34.4	34.4	34.4	95	33.1	0	1	158	0.00	30.008 
23:20	34.6	34.6	34.6	95	33.3	0	1	158	0.00	30.008 
23:25	34.6	34.6	34.6	95	33.3	0	1	158	0.00	30.005 
23:30	34.6	34.6	34.6	95	33.3	0	1	158	0.00	30.004 
23:35	34.6	34.6	34.6	95	33.3	0	0	---	0.00	30.004 
23:40	34.6	34.6	34.6	95	33.3	0	0	---	0.00	30.002 
23:45	34.6	34.6	34.6	95	33.3	0	0	---	0.00	30.005 
23:50	34.6	34.6	34.6	95	33.3	0	1	158	0.00	30.005 
23:55	34.6	34.6	34.6	95	33.3	0	1	158	0.00	30.002 

CoCoRaHS
IN-AL-39
A2 Web Hosting
Creative Commons License
GoDaddy
Look for:

loaded 2017-10-20 19:46:13 • last modified 2010-11-18 10:43:29
Privacy PolicyDisclaimer
• wx.awcolley.com is powered by PmWiki v.2002016 •
• all content (unless otherwise noted) © 2017 A W Colley